Time;durP1;ratioP1;P1;durP2;ratioP2;P2;SDS_P1;SDS_P2;PMS_P1;PMS_P2;Temp;Humidity;BMP_temperature;BMP_pressure;BME280_temperature;BME280_humidity;BME280_pressure;Samples;Min_cycle;Max_cycle;Signal;HPM_P1;HPM_P2
2022/04/16 04:01:15;;;;;;;3.23;3.03;;;9.40;99.90;;;;;;5592463;23;20553;-63
2022/04/16 04:03:42;;;;;;;3.30;3.10;;;9.30;99.90;;;;;;4975145;28;20509;-63
2022/04/16 04:06:10;;;;;;;2.90;2.70;;;9.30;99.90;;;;;;4975212;28;20528;-62
2022/04/16 04:08:37;;;;;;;3.70;3.47;;;9.30;99.90;;;;;;4975148;28;20550;-63
2022/04/16 04:11:04;;;;;;;3.43;3.23;;;9.30;99.90;;;;;;4974786;28;20478;-63
2022/04/16 04:13:31;;;;;;;3.50;3.30;;;9.30;99.90;;;;;;4975052;28;20459;-62
2022/04/16 04:15:58;;;;;;;5.70;3.30;;;9.30;99.90;;;;;;4974542;28;20899;-62
2022/04/16 04:18:26;;;;;;;3.30;3.10;;;9.30;99.90;;;;;;4974751;28;20463;-62
2022/04/16 04:20:54;;;;;;;3.30;3.10;;;9.30;99.90;;;;;;4974699;28;20538;-62
2022/04/16 04:23:22;;;;;;;2.90;2.80;;;9.30;99.90;;;;;;4974842;28;20481;-62
2022/04/16 04:25:49;;;;;;;2.87;2.77;;;9.30;99.90;;;;;;4974867;28;20869;-62
2022/04/16 04:28:16;;;;;;;3.20;3.00;;;9.30;99.90;;;;;;4974890;28;20461;-62
2022/04/16 04:30:42;;;;;;;3.03;2.83;;;9.20;99.90;;;;;;4974682;28;20478;-63
2022/04/16 04:33:09;;;;;;;2.80;2.70;;;9.10;99.90;;;;;;4974237;28;20997;-62
2022/04/16 04:35:37;;;;;;;2.77;2.57;;;9.10;99.90;;;;;;4975066;28;20815;-63
2022/04/16 04:38:04;;;;;;;3.07;2.87;;;9.10;99.90;;;;;;4974882;28;20454;-62
2022/04/16 04:40:31;;;;;;;3.10;3.00;;;9.10;99.90;;;;;;4974711;28;20471;-64
2022/04/16 04:42:58;;;;;;;3.13;2.93;;;9.10;99.90;;;;;;4974492;28;20451;-62
2022/04/16 04:45:24;;;;;;;3.03;2.83;;;9.20;99.90;;;;;;4980866;28;20466;-62
2022/04/16 04:47:51;;;;;;;2.80;2.70;;;9.20;99.90;;;;;;4981558;28;20459;-61
2022/04/16 04:50:18;;;;;;;3.60;3.40;;;9.30;99.90;;;;;;4979042;28;20455;-62
2022/04/16 04:52:46;;;;;;;2.83;2.67;;;9.40;99.90;;;;;;4978542;28;20474;-61
2022/04/16 04:55:14;;;;;;;2.50;2.40;;;9.40;99.90;;;;;;4978639;28;20451;-63
2022/04/16 04:57:41;;;;;;;3.83;2.43;;;9.50;99.90;;;;;;4979503;28;20455;-63
2022/04/16 05:00:09;;;;;;;4.37;4.07;;;9.50;99.90;;;;;;4979545;28;20463;-63
2022/04/16 05:02:43;;;;;;;3.30;3.10;;;9.60;99.90;;;;;;4977771;28;20929;-63
2022/04/16 05:05:10;;;;;;;3.17;2.93;;;9.70;99.90;;;;;;4978168;28;20431;-63
2022/04/16 05:07:37;;;;;;;3.33;3.10;;;9.80;99.90;;;;;;4978215;28;20458;-63
2022/04/16 05:10:06;;;;;;;2.90;2.70;;;9.80;99.90;;;;;;4977754;28;20461;-63
2022/04/16 05:12:33;;;;;;;3.37;3.17;;;9.80;99.90;;;;;;4977921;28;20486;-63
2022/04/16 05:15:00;;;;;;;3.07;2.87;;;9.90;99.90;;;;;;4977859;28;20466;-63
2022/04/16 05:17:27;;;;;;;3.40;3.10;;;9.90;99.90;;;;;;4977928;28;20454;-63
2022/04/16 05:19:54;;;;;;;3.73;2.90;;;10.00;99.90;;;;;;4978003;28;20458;-62
2022/04/16 05:22:20;;;;;;;2.97;2.80;;;10.10;99.90;;;;;;4977832;28;20809;-62
2022/04/16 05:24:47;;;;;;;3.70;3.50;;;10.10;99.90;;;;;;4977762;28;20862;-63
2022/04/16 05:27:15;;;;;;;2.97;2.77;;;10.20;99.90;;;;;;4977806;28;20482;-63
2022/04/16 05:30:04;;;;;;;3.20;3.00;;;10.20;99.90;;;;;;4977675;28;20573;-62
2022/04/16 05:32:35;;;;;;;3.33;3.13;;;10.20;99.90;;;;;;4978144;28;20487;-62
2022/04/16 05:35:03;;;;;;;3.30;3.10;;;10.20;99.90;;;;;;4981835;28;20435;-63
2022/04/16 05:37:29;;;;;;;4.10;3.80;;;10.30;99.90;;;;;;4979498;28;20466;-64
2022/04/16 05:39:56;;;;;;;4.53;3.13;;;10.30;99.90;;;;;;4979772;28;20459;-63
2022/04/16 05:42:24;;;;;;;4.80;3.23;;;10.30;99.90;;;;;;4979364;28;20466;-63
2022/04/16 05:44:51;;;;;;;3.90;3.33;;;10.30;99.90;;;;;;4978999;28;20451;-64
2022/04/16 05:47:17;;;;;;;3.30;3.10;;;10.30;99.90;;;;;;4977729;28;20965;-63
2022/04/16 05:49:44;;;;;;;4.37;4.03;;;10.30;99.90;;;;;;4977385;28;20566;-63
2022/04/16 05:52:11;;;;;;;4.07;3.70;;;10.30;99.90;;;;;;4977095;28;20486;-63
2022/04/16 05:54:38;;;;;;;3.40;3.20;;;10.30;99.90;;;;;;4977434;28;20458;-63
2022/04/16 05:57:07;;;;;;;3.53;3.23;;;10.40;99.90;;;;;;4977398;28;20466;-63
2022/04/16 05:59:35;;;;;;;3.70;3.50;;;10.40;99.90;;;;;;4976907;28;20466;-63
2022/04/16 06:02:02;;;;;;;3.60;3.40;;;10.30;99.90;;;;;;4976715;28;20494;-63
2022/04/16 06:04:29;;;;;;;3.60;3.30;;;10.30;99.90;;;;;;4976596;28;20510;-62
2022/04/16 06:06:55;;;;;;;3.53;3.33;;;10.30;99.90;;;;;;4976919;28;20466;-63
2022/04/16 06:09:22;;;;;;;3.33;3.13;;;10.30;99.90;;;;;;4976768;28;20998;-63
2022/04/16 06:11:51;;;;;;;4.13;3.90;;;10.30;99.90;;;;;;4976834;28;20475;-63
2022/04/16 06:14:18;;;;;;;3.60;3.30;;;10.30;99.90;;;;;;4977012;28;20877;-63
2022/04/16 06:16:46;;;;;;;3.60;3.40;;;10.40;99.90;;;;;;4976925;28;20837;-63
2022/04/16 06:19:13;;;;;;;3.67;3.47;;;10.40;99.90;;;;;;4976737;28;20530;-63
2022/04/16 06:21:39;;;;;;;3.60;3.30;;;10.50;99.90;;;;;;4976713;28;20478;-63
2022/04/16 06:24:06;;;;;;;3.60;3.40;;;10.50;99.90;;;;;;4976729;28;20457;-62
2022/04/16 06:26:33;;;;;;;3.43;3.23;;;10.50;99.90;;;;;;4977074;28;21009;-63
2022/04/16 06:28:59;;;;;;;3.87;3.60;;;10.60;99.90;;;;;;4976721;28;20459;-62
2022/04/16 06:31:26;;;;;;;4.23;3.93;;;10.60;99.90;;;;;;4976674;28;20474;-63
2022/04/16 06:33:54;;;;;;;4.03;3.83;;;10.60;99.90;;;;;;4976551;28;20474;-63
2022/04/16 06:36:21;;;;;;;5.40;4.13;;;10.60;99.90;;;;;;4990237;28;20451;-62
2022/04/16 06:38:47;;;;;;;3.80;3.50;;;10.60;99.90;;;;;;4977694;28;20997;-62
2022/04/16 06:41:14;;;;;;;4.37;3.97;;;10.70;99.90;;;;;;4976284;28;20475;-64
2022/04/16 06:43:43;;;;;;;4.33;4.03;;;10.70;99.90;;;;;;4976111;28;20472;-63
2022/04/16 06:46:10;;;;;;;4.13;3.73;;;10.60;99.90;;;;;;4976057;28;20946;-63
2022/04/16 06:48:37;;;;;;;4.97;4.57;;;10.70;99.90;;;;;;4976319;28;20470;-63
2022/04/16 06:51:05;;;;;;;5.83;4.70;;;10.60;99.90;;;;;;4976317;28;20482;-63
2022/04/16 06:53:32;;;;;;;4.87;4.50;;;10.60;99.90;;;;;;4976164;28;20577;-63
2022/04/16 06:56:00;;;;;;;4.43;4.00;;;10.70;99.90;;;;;;4976054;28;20501;-63
2022/04/16 06:58:27;;;;;;;5.27;4.77;;;10.70;99.90;;;;;;4975544;28;20494;-62
2022/04/16 07:00:54;;;;;;;5.17;3.83;;;10.80;99.90;;;;;;4975171;28;21001;-62
2022/04/16 07:03:21;;;;;;;6.80;4.20;;;10.90;99.90;;;;;;4976308;28;20458;-62
2022/04/16 07:05:47;;;;;;;5.43;5.00;;;10.90;99.90;;;;;;4975913;28;20443;-62
2022/04/16 07:08:15;;;;;;;5.20;4.80;;;11.00;99.90;;;;;;4975379;28;20810;-62
2022/04/16 07:10:42;;;;;;;4.90;4.50;;;11.10;99.90;;;;;;4974856;28;20478;-61
2022/04/16 07:13:09;;;;;;;5.23;4.80;;;11.20;99.90;;;;;;4975340;28;20497;-62
2022/04/16 07:15:36;;;;;;;4.83;4.50;;;11.20;99.90;;;;;;4975452;28;20455;-63
2022/04/16 07:18:03;;;;;;;5.33;4.90;;;11.30;99.90;;;;;;4975637;28;20583;-63
2022/04/16 07:20:30;;;;;;;4.93;4.53;;;11.40;99.90;;;;;;4975026;28;20909;-63
2022/04/16 07:22:57;;;;;;;4.20;3.90;;;11.60;99.90;;;;;;4975465;28;20455;-62
2022/04/16 07:25:26;;;;;;;5.47;5.07;;;11.70;99.90;;;;;;4975365;28;20478;-62
2022/04/16 07:27:52;;;;;;;4.57;4.27;;;11.70;99.90;;;;;;4975444;28;20908;-63
2022/04/16 07:30:19;;;;;;;4.83;4.53;;;11.80;99.90;;;;;;4975176;28;20461;-62
2022/04/16 07:32:46;;;;;;;4.50;4.20;;;11.90;99.90;;;;;;4974708;28;21001;-62
2022/04/16 07:35:13;;;;;;;5.30;4.90;;;12.00;99.90;;;;;;4975105;28;20591;-62
2022/04/16 07:37:40;;;;;;;5.20;4.70;;;12.00;99.90;;;;;;4974914;28;20466;-62
2022/04/16 07:40:08;;;;;;;4.80;4.40;;;12.00;99.90;;;;;;4974906;28;20466;-62
2022/04/16 07:42:36;;;;;;;5.10;4.70;;;12.00;99.90;;;;;;4975031;28;20517;-62
2022/04/16 07:45:03;;;;;;;4.67;4.37;;;12.10;99.90;;;;;;4974939;28;20459;-62
2022/04/16 07:47:29;;;;;;;5.40;4.90;;;12.20;99.90;;;;;;4975188;28;20860;-63
2022/04/16 07:49:56;;;;;;;5.80;5.27;;;12.20;99.90;;;;;;4975110;28;20458;-62
2022/04/16 07:52:25;;;;;;;6.23;4.57;;;12.30;99.90;;;;;;4974764;28;20486;-63
2022/04/16 07:54:51;;;;;;;5.10;4.70;;;12.30;99.90;;;;;;4974826;28;20455;-62
2022/04/16 07:57:18;;;;;;;5.40;5.00;;;12.30;99.90;;;;;;4974944;28;20463;-61
2022/04/16 07:59:46;;;;;;;5.43;5.00;;;12.30;99.90;;;;;;4974844;28;20454;-60
2022/04/16 08:02:13;;;;;;;5.67;5.17;;;12.30;99.90;;;;;;4974385;28;20487;-62
2022/04/16 08:04:41;;;;;;;5.77;5.00;;;12.40;99.90;;;;;;4975409;28;20458;-62
2022/04/16 08:07:07;;;;;;;6.13;5.63;;;12.60;99.90;;;;;;4974768;28;20502;-62
2022/04/16 08:09:34;;;;;;;5.00;4.63;;;12.60;99.90;;;;;;4975464;28;20461;-62
2022/04/16 08:12:01;;;;;;;5.60;5.20;;;12.70;99.90;;;;;;4974677;28;20502;-62
2022/04/16 08:14:27;;;;;;;6.13;5.50;;;12.80;99.90;;;;;;4975044;28;20490;-63
2022/04/16 08:16:56;;;;;;;6.10;5.50;;;12.80;99.90;;;;;;4974764;28;20458;-62
2022/04/16 08:19:23;;;;;;;6.13;5.53;;;12.70;99.90;;;;;;4974874;28;20463;-62
2022/04/16 08:21:50;;;;;;;6.20;5.70;;;12.70;99.90;;;;;;4976589;28;20635;-62
2022/04/16 08:24:38;;;;;;;6.00;5.40;;;12.70;99.90;;;;;;4978560;28;20868;-62
2022/04/16 08:27:05;;;;;;;6.67;6.07;;;12.80;99.90;;;;;;4978673;28;20458;-62
2022/04/16 08:29:32;;;;;;;6.63;6.13;;;12.90;99.90;;;;;;4979113;28;20450;-62
2022/04/16 08:32:01;;;;;;;6.30;5.80;;;12.90;99.90;;;;;;4978582;28;20502;-62
2022/04/16 08:34:28;;;;;;;7.60;6.37;;;13.00;99.90;;;;;;4978047;28;20467;-62
2022/04/16 08:36:54;;;;;;;7.10;6.50;;;13.10;99.90;;;;;;4978858;28;20454;-63
2022/04/16 08:39:22;;;;;;;6.80;6.10;;;13.20;99.90;;;;;;4978137;28;20462;-62
2022/04/16 08:41:50;;;;;;;6.77;6.17;;;13.30;99.90;;;;;;4978264;28;20474;-62
2022/04/16 08:44:19;;;;;;;6.07;5.57;;;13.40;99.90;;;;;;4978982;28;20446;-63
2022/04/16 08:46:46;;;;;;;7.07;6.40;;;13.50;99.90;;;;;;4978390;28;20532;-62
2022/04/16 08:49:16;;;;;;;7.00;6.50;;;13.60;99.90;;;;;;4978481;28;20648;-62
2022/04/16 08:51:44;;;;;;;8.00;7.30;;;13.70;99.90;;;;;;4978415;28;20522;-61
2022/04/16 08:54:11;;;;;;;8.10;7.37;;;13.70;99.90;;;;;;4978347;28;20478;-62
2022/04/16 08:56:39;;;;;;;8.60;7.90;;;13.70;99.90;;;;;;4978023;28;20953;-62
2022/04/16 08:59:05;;;;;;;8.10;7.40;;;13.60;99.90;;;;;;4978174;28;20459;-62
2022/04/16 09:01:32;;;;;;;7.73;6.90;;;13.60;99.90;;;;;;4977502;28;20978;-62
2022/04/16 09:03:59;;;;;;;8.50;7.80;;;13.70;99.90;;;;;;4977984;28;20477;-62
2022/04/16 09:06:28;;;;;;;8.00;7.30;;;13.90;99.90;;;;;;4977805;28;20489;-62
2022/04/16 09:08:54;;;;;;;7.13;6.50;;;14.10;99.90;;;;;;4977899;28;20513;-62
2022/04/16 09:11:23;;;;;;;8.90;8.10;;;14.20;99.90;;;;;;4977952;28;20541;-61
2022/04/16 09:13:54;;;;;;;8.07;7.27;;;14.30;99.90;;;;;;4978447;28;20482;-61
2022/04/16 09:16:21;;;;;;;40.83;17.88;;;14.20;99.90;;;;;;4977023;28;20493;-63
2022/04/16 09:18:50;;;;;;;16.00;11.30;;;14.00;99.90;;;;;;4978005;28;20228;-63
2022/04/16 09:21:17;;;;;;;11.00;9.37;;;13.90;99.90;;;;;;4977776;28;20518;-63
2022/04/16 09:23:50;;;;;;;10.10;9.00;;;14.10;99.90;;;;;;4977736;28;20817;-63
2022/04/16 09:26:28;;;;;;;95.27;41.60;;;14.10;99.90;;;;;;4977841;28;20800;-63
2022/04/16 09:28:55;;;;;;;9.20;8.40;;;14.10;99.90;;;;;;4977506;28;20505;-63
2022/04/16 09:31:28;;;;;;;38.33;20.80;;;14.00;99.90;;;;;;4977376;28;20474;-63
2022/04/16 09:33:54;;;;;;;9.70;8.80;;;14.00;99.90;;;;;;4976472;28;21041;-62
2022/04/16 09:36:25;;;;;;;10.40;9.40;;;13.90;99.90;;;;;;4977473;28;20866;-63
2022/04/16 09:39:00;;;;;;;10.30;9.33;;;13.90;99.90;;;;;;4977616;28;20459;-64
2022/04/16 09:41:31;;;;;;;17.07;10.27;;;14.00;99.90;;;;;;4977825;28;20564;-62
2022/04/16 09:43:58;;;;;;;15.33;11.60;;;14.00;99.90;;;;;;4977447;28;20463;-62
2022/04/16 09:46:27;;;;;;;12.20;9.57;;;13.80;99.90;;;;;;4976992;28;20458;-63
2022/04/16 09:49:02;;;;;;;12.73;8.40;;;13.70;99.90;;;;;;4977405;28;20443;-62
2022/04/16 09:51:35;;;;;;;9.90;9.00;;;13.90;99.90;;;;;;4977086;28;20506;-63
2022/04/16 09:54:06;;;;;;;9.40;8.57;;;14.20;99.90;;;;;;4977017;28;20498;-62
2022/04/16 09:56:34;;;;;;;8.90;8.07;;;14.40;99.90;;;;;;4977096;28;20449;-62
2022/04/16 09:59:04;;;;;;;10.60;8.10;;;14.70;99.90;;;;;;4977199;28;20497;-62
2022/04/16 10:01:31;;;;;;;8.27;7.57;;;15.00;99.90;;;;;;4976816;28;20512;-63
2022/04/16 10:03:58;;;;;;;9.67;8.83;;;15.20;99.90;;;;;;4977796;28;20451;-63
2022/04/16 10:06:25;;;;;;;9.50;8.60;;;15.30;99.90;;;;;;4977179;28;20954;-62
2022/04/16 10:08:52;;;;;;;8.60;7.63;;;15.40;99.90;;;;;;4976827;28;20455;-63
2022/04/16 10:11:41;;;;;;;8.90;8.10;;;15.70;99.90;;;;;;4976536;28;21049;-62
2022/04/16 10:14:13;;;;;;;8.03;7.23;;;15.60;99.90;;;;;;4976528;28;20873;-63
2022/04/16 10:16:46;;;;;;;8.00;7.30;;;15.80;99.90;;;;;;4976615;28;20807;-62
2022/04/16 10:19:17;;;;;;;8.30;7.60;;;16.10;99.60;;;;;;4977498;28;20442;-63
2022/04/16 10:21:44;;;;;;;9.60;8.80;;;16.30;98.60;;;;;;4976679;28;20479;-63
2022/04/16 10:24:10;;;;;;;8.77;8.03;;;16.50;98.00;;;;;;4976617;28;20455;-63
2022/04/16 10:26:40;;;;;;;8.30;7.60;;;16.20;97.80;;;;;;4976152;28;20822;-63
2022/04/16 10:29:07;;;;;;;7.03;6.43;;;15.90;97.50;;;;;;4976083;28;20911;-63
2022/04/16 10:31:36;;;;;;;6.20;5.70;;;16.10;97.00;;;;;;4976466;28;20475;-63
2022/04/16 10:34:09;;;;;;;6.27;5.77;;;16.40;96.50;;;;;;4976323;28;20533;-63
2022/04/16 10:36:38;;;;;;;6.73;6.13;;;16.90;96.00;;;;;;4976181;28;20479;-63
2022/04/16 10:39:15;;;;;;;6.70;6.10;;;17.50;97.50;;;;;;4976192;28;20459;-63
2022/04/16 10:41:54;;;;;;;6.67;6.17;;;17.80;91.50;;;;;;4976452;28;20474;-63
2022/04/16 10:44:20;;;;;;;7.33;6.73;;;17.90;91.10;;;;;;4975892;28;20502;-63
2022/04/16 10:46:48;;;;;;;6.93;6.33;;;17.20;90.40;;;;;;4975834;28;20802;-63
2022/04/16 10:49:17;;;;;;;7.40;6.70;;;16.80;91.90;;;;;;4976543;28;20458;-63
2022/04/16 10:51:43;;;;;;;5.60;5.20;;;16.40;91.80;;;;;;4976456;28;20483;-64
2022/04/16 10:54:11;;;;;;;6.90;6.30;;;16.40;92.40;;;;;;4976203;28;20481;-63
2022/04/16 10:56:40;;;;;;;7.77;6.97;;;16.60;93.10;;;;;;4977125;28;20822;-62
2022/04/16 10:59:10;;;;;;;5.63;5.20;;;17.20;91.90;;;;;;4977473;28;20455;-62
2022/04/16 11:01:38;;;;;;;5.47;5.07;;;17.50;92.10;;;;;;4975210;28;20483;-63
2022/04/16 11:04:14;;;;;;;4.87;4.47;;;17.70;90.30;;;;;;4975499;28;20462;-62
2022/04/16 11:06:45;;;;;;;4.87;4.47;;;17.80;89.80;;;;;;4975612;28;20461;-63
2022/04/16 11:09:13;;;;;;;5.53;5.03;;;18.00;89.00;;;;;;4975903;28;20439;-63
2022/04/16 11:11:41;;;;;;;5.33;4.93;;;17.80;88.30;;;;;;4975593;28;20482;-63
2022/04/16 11:14:10;;;;;;;3.93;3.70;;;18.20;89.10;;;;;;4975375;28;20479;-64
2022/04/16 11:16:44;;;;;;;4.13;3.73;;;18.50;85.80;;;;;;4975387;28;20505;-64
2022/04/16 11:19:13;;;;;;;4.20;3.90;;;19.10;84.70;;;;;;4975770;28;20927;-63
2022/04/16 11:21:40;;;;;;;4.30;4.00;;;19.50;81.30;;;;;;4975270;28;20478;-63
2022/04/16 11:24:07;;;;;;;3.73;3.53;;;20.10;84.40;;;;;;4975502;28;20455;-63
2022/04/16 11:34:53;;;;;;;3.57;3.37;;;20.00;77.00;;;;;;4976305;28;20466;-62
2022/04/16 11:37:20;;;;;;;4.60;4.20;;;19.80;76.70;;;;;;4982389;28;20550;-63
2022/04/16 11:39:48;;;;;;;4.93;4.57;;;19.80;73.60;;;;;;4990479;28;20458;-64
2022/04/16 11:42:15;;;;;;;8.37;5.00;;;19.40;76.90;;;;;;4988837;28;20853;-63
2022/04/16 11:44:45;;;;;;;5.60;5.20;;;19.40;77.60;;;;;;4989362;28;20479;-64
2022/04/16 11:47:14;;;;;;;6.60;4.83;;;19.40;80.70;;;;;;4983738;28;20440;-64
2022/04/16 11:49:43;;;;;;;5.20;4.80;;;19.40;74.80;;;;;;4976729;28;20459;-63
2022/04/16 11:52:11;;;;;;;5.20;4.80;;;19.40;74.90;;;;;;4975212;28;20481;-63
2022/04/16 11:54:38;;;;;;;5.40;4.60;;;19.10;73.80;;;;;;4975207;28;20521;-62
2022/04/16 11:57:05;;;;;;;4.90;4.20;;;18.50;73.20;;;;;;4974884;28;20541;-64
2022/04/16 11:59:34;;;;;;;4.97;4.50;;;18.40;77.40;;;;;;4974632;28;20490;-64
2022/04/16 12:02:07;;;;;;;4.20;3.90;;;18.40;78.90;;;;;;4974561;28;20490;-63
2022/04/16 12:04:36;;;;;;;4.70;4.30;;;18.20;74.50;;;;;;4974819;28;20938;-64
2022/04/16 12:07:03;;;;;;;5.23;4.27;;;18.30;72.20;;;;;;4974856;28;20459;-63
2022/04/16 12:09:32;;;;;;;4.17;3.77;;;18.10;76.50;;;;;;4974820;28;20454;-63
2022/04/16 12:12:01;;;;;;;4.50;4.20;;;18.10;75.30;;;;;;4974527;28;20486;-63
2022/04/16 12:14:27;;;;;;;4.17;3.93;;;18.20;75.50;;;;;;4974793;28;20877;-64
2022/04/16 12:16:58;;;;;;;4.97;4.57;;;18.40;74.00;;;;;;4974913;28;20462;-63
2022/04/16 12:19:31;;;;;;;4.93;4.63;;;18.10;72.30;;;;;;4974817;28;20463;-63
2022/04/16 12:21:58;;;;;;;5.10;4.70;;;17.80;71.90;;;;;;4974870;28;20907;-62
2022/04/16 12:24:28;;;;;;;4.60;4.30;;;17.70;75.00;;;;;;4976070;28;20454;-63
2022/04/16 12:26:56;;;;;;;5.17;4.77;;;17.90;75.80;;;;;;4974802;28;20448;-62
2022/04/16 12:29:30;;;;;;;4.77;4.30;;;18.20;74.70;;;;;;4974631;28;20498;-62
2022/04/16 12:31:58;;;;;;;5.17;3.87;;;18.30;76.40;;;;;;4974474;28;20474;-62
2022/04/16 12:34:25;;;;;;;5.33;4.93;;;18.50;75.80;;;;;;4974875;28;20569;-62
2022/04/16 12:36:54;;;;;;;6.20;5.70;;;18.70;72.70;;;;;;4974312;28;20981;-62
2022/04/16 12:39:23;;;;;;;5.70;5.20;;;18.70;77.00;;;;;;4974646;28;20477;-73
2022/04/16 12:41:51;;;;;;;5.43;5.03;;;18.80;79.20;;;;;;4974296;28;20479;-62
2022/04/16 12:44:18;;;;;;;5.47;4.97;;;18.90;75.60;;;;;;4974678;28;20458;-62
2022/04/16 12:46:45;;;;;;;4.70;4.30;;;18.90;76.60;;;;;;4974596;28;20550;-62
2022/04/16 12:49:11;;;;;;;5.10;4.60;;;18.80;73.90;;;;;;4975034;28;20950;-65
2022/04/16 12:51:38;;;;;;;4.03;3.73;;;18.80;73.40;;;;;;4974595;28;20478;-62
2022/04/16 12:54:06;;;;;;;4.93;4.57;;;18.50;73.40;;;;;;4974372;28;20462;-62
2022/04/16 12:56:33;;;;;;;4.60;4.30;;;18.20;72.80;;;;;;4974529;28;20467;-63
2022/04/16 12:59:00;;;;;;;4.23;3.83;;;18.10;73.10;;;;;;4974565;28;20539;-62
2022/04/16 13:01:26;;;;;;;4.77;4.47;;;18.20;73.40;;;;;;4973892;28;20490;-62
2022/04/16 13:03:53;;;;;;;4.20;3.90;;;17.60;70.50;;;;;;4974467;28;20451;-62
2022/04/16 13:06:20;;;;;;;4.23;3.83;;;17.70;72.00;;;;;;4974435;28;20458;-61
2022/04/16 13:08:47;;;;;;;4.30;4.00;;;17.80;70.40;;;;;;4975645;28;20870;-63
2022/04/16 13:11:17;;;;;;;4.40;4.10;;;17.70;72.80;;;;;;4977845;28;20483;-62
2022/04/16 13:13:44;;;;;;;7.50;4.17;;;18.10;74.30;;;;;;4977661;28;20455;-63
2022/04/16 13:16:10;;;;;;;5.17;4.70;;;18.10;71.60;;;;;;4977650;28;20475;-63
2022/04/16 13:18:38;;;;;;;4.70;4.30;;;18.10;70.50;;;;;;4977961;28;20470;-63
2022/04/16 13:21:06;;;;;;;4.23;3.93;;;18.20;67.70;;;;;;4977749;28;20482;-63
2022/04/16 13:23:34;;;;;;;5.70;5.20;;;18.10;69.90;;;;;;4977838;28;20458;-62
2022/04/16 13:26:00;;;;;;;3.80;3.50;;;17.80;66.30;;;;;;4982119;28;20458;-63
2022/04/16 13:28:29;;;;;;;4.03;3.73;;;17.90;66.30;;;;;;4986848;28;20451;-63
2022/04/16 13:30:56;;;;;;;4.30;3.87;;;18.10;68.30;;;;;;4988484;28;20474;-62
2022/04/16 13:33:23;;;;;;;4.07;3.70;;;18.20;65.50;;;;;;4987931;28;20447;-62
2022/04/16 13:35:50;;;;;;;4.00;3.70;;;18.30;69.30;;;;;;4989273;28;20475;-63
2022/04/16 13:38:16;;;;;;;3.83;3.53;;;18.50;67.10;;;;;;4978208;28;20466;-63
2022/04/16 13:43:29;;;;;;;3.60;3.40;;;18.60;64.90;;;;;;4977757;28;20430;-63
2022/04/16 13:45:56;;;;;;;4.13;3.73;;;18.30;67.70;;;;;;4977802;28;20451;-62
2022/04/16 13:48:25;;;;;;;3.83;3.53;;;18.40;67.10;;;;;;4977722;28;20455;-63
2022/04/16 13:50:54;;;;;;;4.20;3.83;;;18.20;63.80;;;;;;4977676;28;20489;-63
2022/04/16 13:53:23;;;;;;;4.90;4.50;;;18.30;64.50;;;;;;4977578;28;20459;-63
2022/04/16 13:55:50;;;;;;;5.10;4.57;;;18.30;66.30;;;;;;4977704;28;20483;-62
2022/04/16 13:58:17;;;;;;;3.97;3.67;;;18.20;65.20;;;;;;4976921;28;20470;-63
2022/04/16 14:00:45;;;;;;;3.93;3.63;;;18.30;66.90;;;;;;4976795;28;20482;-62
2022/04/16 14:03:12;;;;;;;3.73;3.40;;;18.50;67.50;;;;;;4977232;28;20463;-62
2022/04/16 14:05:45;;;;;;;3.67;3.43;;;18.50;65.20;;;;;;4977120;28;20451;-62
2022/04/16 14:08:12;;;;;;;3.97;3.67;;;18.30;63.20;;;;;;4976768;28;20530;-61
2022/04/16 14:10:40;;;;;;;4.07;3.83;;;18.30;63.30;;;;;;4976919;28;20844;-62
2022/04/16 14:13:08;;;;;;;4.40;4.00;;;18.30;65.80;;;;;;4977010;28;20542;-62
2022/04/16 14:15:35;;;;;;;4.10;3.70;;;18.10;65.10;;;;;;4976619;28;20521;-62
2022/04/16 14:18:03;;;;;;;4.03;3.70;;;17.90;67.60;;;;;;4976770;28;20493;-62
2022/04/16 14:20:30;;;;;;;4.47;4.17;;;17.90;65.00;;;;;;4976353;28;20866;-63
2022/04/16 14:22:57;;;;;;;3.97;3.77;;;17.80;65.80;;;;;;4976699;28;20462;-62
2022/04/16 14:25:25;;;;;;;4.50;4.20;;;17.80;64.80;;;;;;4976452;28;20451;-63
2022/04/16 14:27:52;;;;;;;3.73;3.53;;;17.80;66.60;;;;;;4977080;28;20795;-63
2022/04/16 14:30:21;;;;;;;3.70;3.50;;;17.60;68.00;;;;;;4977069;28;20455;-64
2022/04/16 14:32:48;;;;;;;3.70;3.50;;;17.80;64.30;;;;;;4976332;28;20462;-61
2022/04/16 14:35:17;;;;;;;3.80;3.50;;;17.80;61.40;;;;;;4976159;28;20485;-62
2022/04/16 14:37:44;;;;;;;3.73;3.43;;;17.90;59.70;;;;;;4976352;28;20455;-62
2022/04/16 14:40:11;;;;;;;4.20;3.90;;;18.00;59.80;;;;;;4976302;28;20513;-62
2022/04/16 14:42:38;;;;;;;4.63;3.47;;;18.00;60.60;;;;;;4976039;28;20471;-62
2022/04/16 14:45:06;;;;;;;3.30;3.10;;;18.00;61.90;;;;;;4976184;28;20455;-62
2022/04/16 14:47:33;;;;;;;3.60;3.30;;;18.00;60.00;;;;;;4975915;28;20972;-62
2022/04/16 14:50:01;;;;;;;4.20;3.83;;;17.80;59.60;;;;;;4976156;28;20481;-64
2022/04/16 14:52:29;;;;;;;3.83;3.57;;;17.90;60.90;;;;;;4976039;28;20475;-62
2022/04/16 14:54:57;;;;;;;3.70;3.50;;;17.90;60.40;;;;;;4975778;28;21013;-61
2022/04/16 14:57:24;;;;;;;4.97;4.57;;;17.90;58.40;;;;;;4976513;28;20510;-62
2022/04/16 14:59:51;;;;;;;5.57;4.50;;;17.70;59.80;;;;;;4976113;28;20490;-62
2022/04/16 15:02:18;;;;;;;4.60;4.20;;;17.80;60.60;;;;;;4975381;28;20487;-62
2022/04/16 15:04:47;;;;;;;4.23;3.93;;;17.80;59.60;;;;;;4975918;28;20454;-62
2022/04/16 15:07:14;;;;;;;3.43;3.23;;;17.70;57.20;;;;;;4981609;28;20459;-62
2022/04/16 15:09:44;;;;;;;3.50;3.30;;;17.60;58.00;;;;;;4986489;28;20462;-62
2022/04/16 15:12:11;;;;;;;4.50;4.20;;;17.60;57.80;;;;;;4980987;28;20565;-63
2022/04/16 15:14:37;;;;;;;4.17;3.87;;;17.60;58.60;;;;;;4975757;28;20459;-63
2022/04/16 15:17:05;;;;;;;3.60;3.40;;;17.60;60.20;;;;;;4975615;28;20461;-63
2022/04/16 15:19:31;;;;;;;3.83;3.53;;;17.60;56.90;;;;;;4975314;28;20462;-63
2022/04/16 15:21:58;;;;;;;4.40;4.10;;;17.70;55.80;;;;;;4975498;28;20482;-62
2022/04/16 15:24:25;;;;;;;4.10;3.77;;;17.70;62.30;;;;;;4975510;28;20454;-62
2022/04/16 15:26:53;;;;;;;4.27;3.67;;;17.90;73.50;;;;;;4975883;28;20482;-62
2022/04/16 15:29:20;;;;;;;4.20;2.80;;;17.90;56.20;;;;;;4975878;28;20459;-62
2022/04/16 15:31:47;;;;;;;2.67;2.50;;;17.90;54.00;;;;;;4974668;28;20471;-62
2022/04/16 15:34:14;;;;;;;5.03;2.87;;;17.80;52.40;;;;;;4975230;28;20446;-62
2022/04/16 15:36:41;;;;;;;3.20;2.87;;;17.60;51.20;;;;;;4975334;28;20488;-68
2022/04/16 15:39:07;;;;;;;4.60;3.17;;;17.50;50.60;;;;;;4975926;28;20455;-65
2022/04/16 15:41:34;;;;;;;4.70;2.93;;;17.30;54.10;;;;;;4975450;28;20879;-63
2022/04/16 15:44:04;;;;;;;2.77;2.63;;;17.30;52.30;;;;;;4976023;28;20462;-61
2022/04/16 15:46:33;;;;;;;4.20;3.07;;;17.40;53.00;;;;;;4976105;28;20444;-61
2022/04/16 15:48:59;;;;;;;2.93;2.40;;;17.50;51.20;;;;;;4975123;28;20443;-62
2022/04/16 15:51:27;;;;;;;3.23;2.53;;;17.50;51.60;;;;;;4975347;28;20475;-61
2022/04/16 15:53:54;;;;;;;3.07;2.57;;;17.30;49.30;;;;;;4975303;28;20480;-61
2022/04/16 15:56:21;;;;;;;2.73;2.53;;;17.10;48.00;;;;;;4975159;28;20483;-61
2022/04/16 15:58:48;;;;;;;3.20;2.90;;;16.90;48.60;;;;;;4975243;28;20566;-61
2022/04/16 16:01:16;;;;;;;3.77;3.30;;;17.00;49.30;;;;;;4974723;28;20494;-61
2022/04/16 16:03:43;;;;;;;3.30;3.00;;;16.90;47.90;;;;;;4974943;28;20458;-61
2022/04/16 16:06:10;;;;;;;2.87;2.67;;;16.70;48.40;;;;;;4975185;28;20542;-61
2022/04/16 16:08:37;;;;;;;6.70;3.10;;;16.80;48.90;;;;;;4974814;28;20465;-60
2022/04/16 16:11:03;;;;;;;2.83;2.63;;;16.70;49.00;;;;;;4975158;28;20479;-62
2022/04/16 16:13:30;;;;;;;3.00;2.80;;;16.60;48.50;;;;;;4975266;28;20458;-63
2022/04/16 16:15:57;;;;;;;3.17;2.87;;;16.50;50.90;;;;;;4975264;28;20506;-63
2022/04/16 16:18:25;;;;;;;5.90;4.77;;;16.40;52.10;;;;;;4975487;28;20554;-63
2022/04/16 16:20:53;;;;;;;2.77;2.57;;;16.40;55.70;;;;;;4975357;28;20478;-62
2022/04/16 16:23:21;;;;;;;2.90;2.70;;;16.40;46.20;;;;;;4975849;28;20457;-61
2022/04/16 16:25:48;;;;;;;4.33;2.70;;;16.20;45.70;;;;;;4977736;28;20451;-62
2022/04/16 16:28:14;;;;;;;3.20;3.00;;;16.20;47.00;;;;;;4989787;28;20961;-62
2022/04/16 16:30:41;;;;;;;3.27;2.97;;;16.10;46.40;;;;;;4988794;28;20508;-61
2022/04/16 16:33:09;;;;;;;3.80;3.40;;;15.90;46.50;;;;;;4988705;28;20462;-61
2022/04/16 16:35:37;;;;;;;3.07;2.87;;;15.70;48.00;;;;;;4989323;28;20479;-61
2022/04/16 16:38:05;;;;;;;2.97;2.83;;;15.60;48.80;;;;;;4989312;28;20478;-61
2022/04/16 16:40:33;;;;;;;3.20;3.10;;;15.30;46.50;;;;;;4987750;28;20458;-61
2022/04/16 16:42:59;;;;;;;3.20;3.00;;;15.20;46.40;;;;;;4978831;28;20947;-61
2022/04/16 16:45:26;;;;;;;4.60;3.30;;;15.10;47.30;;;;;;4978545;28;20435;-61
2022/04/16 16:47:53;;;;;;;4.10;2.97;;;15.10;48.00;;;;;;4979172;28;20458;-62
2022/04/16 16:50:20;;;;;;;4.33;3.90;;;15.00;47.20;;;;;;4978823;28;20462;-61
2022/04/16 16:52:48;;;;;;;3.27;3.07;;;14.90;47.50;;;;;;4980958;28;20467;-61
2022/04/16 16:55:16;;;;;;;3.57;3.37;;;14.90;48.10;;;;;;4980219;28;20451;-61
2022/04/16 16:57:43;;;;;;;3.97;3.53;;;14.90;47.90;;;;;;4978526;28;20454;-61
2022/04/16 17:00:12;;;;;;;3.73;3.43;;;14.80;47.80;;;;;;4980045;28;20458;-62
2022/04/16 17:05:20;;;;;;;3.10;3.00;;;14.70;47.80;;;;;;4956750;28;20457;-61